Time;durP1;ratioP1;P1;durP2;ratioP2;P2;SDS_P1;SDS_P2;PMS_P1;PMS_P2;Temp;Humidity;BMP_temperature;BMP_pressure;BME280_temperature;BME280_humidity;BME280_pressure;Samples;Min_cycle;Max_cycle;Signal;HPM_P1;HPM_P2
2021/06/08 00:01:22;;;;;;;;;;;16.90;1.00;;;;;;5028105;28;19913;-65
2021/06/08 00:03:47;;;;;;;;;;;16.90;1.00;;;;;;5036058;28;20298;-69
2021/06/08 00:06:12;;;;;;;;;;;16.90;1.00;;;;;;5041728;28;19939;-72
2021/06/08 00:08:38;;;;;;;;;;;16.90;1.00;;;;;;5038269;28;20043;-66
2021/06/08 00:11:03;;;;;;;;;;;16.90;1.00;;;;;;5034101;28;20024;-65
2021/06/08 00:13:29;;;;;;;;;;;16.90;1.00;;;;;;5028013;28;19913;-69
2021/06/08 00:15:55;;;;;;;;;;;16.80;1.00;;;;;;5027062;28;19920;-66
2021/06/08 00:18:20;;;;;;;;;;;16.70;1.00;;;;;;5026994;28;20302;-64
2021/06/08 00:20:46;;;;;;;;;;;16.70;1.00;;;;;;5026674;28;19916;-64
2021/06/08 00:23:11;;;;;;;;;;;16.60;1.00;;;;;;5027055;28;19909;-66
2021/06/08 00:25:38;;;;;;;;;;;16.60;1.00;;;;;;5027416;28;19909;-67
2021/06/08 00:28:04;;;;;;;;;;;16.60;1.00;;;;;;5026641;28;19909;-66
2021/06/08 00:30:30;;;;;;;;;;;16.60;1.00;;;;;;5026961;28;19920;-67
2021/06/08 00:32:56;;;;;;;;;;;16.60;1.00;;;;;;5046811;28;19913;-67
2021/06/08 00:35:21;;;;;;;;;;;16.60;1.00;;;;;;5046435;28;19956;-66
2021/06/08 00:37:47;;;;;;;;;;;16.60;1.00;;;;;;5027274;28;19916;-66
2021/06/08 00:40:12;;;;;;;;;;;16.50;1.00;;;;;;5026641;28;19909;-65
2021/06/08 00:42:38;;;;;;;;;;;16.50;1.00;;;;;;5027954;28;19924;-67
2021/06/08 00:45:05;;;;;;;;;;;16.60;1.00;;;;;;5027145;28;19985;-66
2021/06/08 00:47:30;;;;;;;;;;;16.50;1.00;;;;;;5027819;28;20468;-66
2021/06/08 00:49:56;;;;;;;;;;;16.50;1.00;;;;;;5024990;28;19932;-70
2021/06/08 00:52:22;;;;;;;;;;;16.50;1.00;;;;;;5027510;28;19986;-66
2021/06/08 00:54:47;;;;;;;;;;;16.50;1.00;;;;;;5026741;28;19915;-66
2021/06/08 00:57:13;;;;;;;;;;;16.50;1.00;;;;;;5028261;28;19913;-66
2021/06/08 00:59:38;;;;;;;;;;;16.50;1.00;;;;;;5026369;28;19913;-69
2021/06/08 01:02:04;;;;;;;;;;;16.50;1.00;;;;;;5027348;28;19909;-69
2021/06/08 01:04:29;;;;;;;;;;;16.50;1.00;;;;;;5034892;28;19928;-67
2021/06/08 01:06:55;;;;;;;;;;;16.50;1.00;;;;;;5047128;28;19927;-66
2021/06/08 01:09:20;;;;;;;;;;;16.40;1.00;;;;;;5045438;28;19920;-65
2021/06/08 01:11:46;;;;;;;;;;;16.40;1.00;;;;;;5028437;28;19915;-67
2021/06/08 01:14:11;;;;;;;;;;;16.30;1.00;;;;;;5026466;28;19915;-66
2021/06/08 01:16:37;;;;;;;;;;;16.30;1.00;;;;;;5027357;28;20172;-69
2021/06/08 01:19:03;;;;;;;;;;;16.30;1.00;;;;;;5025726;28;19917;-72
2021/06/08 01:21:28;;;;;;;;;;;16.30;1.00;;;;;;5027373;28;19913;-68
2021/06/08 01:23:55;;;;;;;;;;;16.30;1.00;;;;;;5026808;28;19988;-68
2021/06/08 01:26:27;;;;;;;;;;;16.20;1.00;;;;;;5027822;28;20336;-64
2021/06/08 01:28:53;;;;;;;;;;;16.30;1.00;;;;;;5026896;28;19939;-69
2021/06/08 01:31:21;;;;;;;;;;;16.30;1.00;;;;;;5034029;28;20153;-69
2021/06/08 01:33:46;;;;;;;;;;;16.30;1.00;;;;;;5046285;28;20223;-65
2021/06/08 01:36:13;;;;;;;;;;;16.30;1.00;;;;;;5047665;28;19920;-66
2021/06/08 01:38:39;;;;;;;;;;;16.20;1.00;;;;;;5037546;28;19913;-65
2021/06/08 01:41:05;;;;;;;;;;;16.20;1.00;;;;;;5025947;28;20003;-64
2021/06/08 01:43:31;;;;;;;;;;;16.20;1.00;;;;;;5037706;28;19995;-65
2021/06/08 01:45:56;;;;;;;;;;;16.20;1.00;;;;;;5040796;28;20356;-68
2021/06/08 01:48:22;;;;;;;;;;;16.20;1.00;;;;;;5049907;28;20338;-68
2021/06/08 01:50:49;;;;;;;;;;;16.20;1.00;;;;;;5050558;28;20362;-69
2021/06/08 01:53:20;;;;;;;;;;;16.20;1.00;;;;;;5049895;28;19916;-66
2021/06/08 01:55:47;;;;;;;;;;;16.20;1.00;;;;;;5050176;28;19909;-65
2021/06/08 01:58:19;;;;;;;;;;;16.30;1.00;;;;;;5049833;28;19913;-64
2021/06/08 02:00:52;;;;;;;;;;;16.30;1.00;;;;;;5048122;28;20007;-70
2021/06/08 02:03:20;;;;;;;;;;;16.30;1.00;;;;;;5037828;28;19913;-67
2021/06/08 02:05:52;;;;;;;;;;;16.20;1.00;;;;;;5042331;28;20278;-67
2021/06/08 02:08:20;;;;;;;;;;;16.20;1.00;;;;;;5049951;28;19919;-65
2021/06/08 02:10:56;;;;;;;;;;;16.20;1.00;;;;;;5039556;28;20333;-66
2021/06/08 02:13:27;;;;;;;;;;;16.20;1.00;;;;;;5029734;28;20449;-65
2021/06/08 02:15:55;;;;;;;;;;;16.20;1.00;;;;;;5029508;28;19999;-67
2021/06/08 02:18:23;;;;;;;;;;;16.20;1.00;;;;;;5029464;28;19970;-68
2021/06/08 02:20:50;;;;;;;;;;;16.20;1.00;;;;;;5029712;28;20290;-68
2021/06/08 02:23:18;;;;;;;;;;;16.20;1.00;;;;;;5030166;28;20321;-68
2021/06/08 02:25:44;;;;;;;;;;;16.20;1.00;;;;;;5030389;28;19958;-68
2021/06/08 02:28:12;;;;;;;;;;;16.20;1.00;;;;;;5029741;28;19913;-68
2021/06/08 02:30:40;;;;;;;;;;;16.20;1.00;;;;;;5031255;28;19984;-68
2021/06/08 02:33:06;;;;;;;;;;;16.20;1.00;;;;;;5049367;28;19912;-66
2021/06/08 02:35:31;;;;;;;;;;;16.20;1.00;;;;;;5050040;28;20046;-66
2021/06/08 02:37:58;;;;;;;;;;;16.20;1.00;;;;;;5045873;28;19932;-66
2021/06/08 02:40:24;;;;;;;;;;;16.20;1.00;;;;;;5028873;28;19909;-66
2021/06/08 02:42:49;;;;;;;;;;;16.20;1.00;;;;;;5029829;28;20088;-66
2021/06/08 02:45:15;;;;;;;;;;;16.20;1.00;;;;;;5028856;28;19909;-66
2021/06/08 02:47:41;;;;;;;;;;;16.10;1.00;;;;;;5029217;28;19909;-66
2021/06/08 02:50:07;;;;;;;;;;;16.10;1.00;;;;;;5028085;28;20441;-66
2021/06/08 02:52:34;;;;;;;;;;;16.10;1.00;;;;;;5028880;28;19916;-66
2021/06/08 02:55:00;;;;;;;;;;;16.10;1.00;;;;;;5028438;28;19928;-66
2021/06/08 02:57:26;;;;;;;;;;;16.10;1.00;;;;;;5029405;28;19945;-66
2021/06/08 02:59:53;;;;;;;;;;;16.10;1.00;;;;;;5027809;28;20386;-66
2021/06/08 03:02:19;;;;;;;;;;;16.00;1.00;;;;;;5028783;28;19951;-66
2021/06/08 03:04:52;;;;;;;;;;;16.00;1.00;;;;;;5038614;28;19952;-66
2021/06/08 03:07:20;;;;;;;;;;;16.00;1.00;;;;;;5048405;28;19963;-66
2021/06/08 03:09:45;;;;;;;;;;;16.00;1.00;;;;;;5037798;28;19913;-66
2021/06/08 03:12:12;;;;;;;;;;;16.00;1.00;;;;;;5028706;28;20416;-66
2021/06/08 03:14:41;;;;;;;;;;;16.00;1.00;;;;;;5028580;28;19992;-66
2021/06/08 03:17:07;;;;;;;;;;;16.00;1.00;;;;;;5029521;28;19913;-66
2021/06/08 03:19:34;;;;;;;;;;;16.00;1.00;;;;;;5027584;28;19921;-66
2021/06/08 03:22:02;;;;;;;;;;;16.00;1.00;;;;;;5028968;28;19913;-66
2021/06/08 03:24:30;;;;;;;;;;;16.10;1.00;;;;;;5027897;28;19918;-66
2021/06/08 03:26:57;;;;;;;;;;;16.20;1.00;;;;;;5028999;28;19913;-66
2021/06/08 03:29:23;;;;;;;;;;;16.20;1.00;;;;;;5027211;28;20027;-66
2021/06/08 03:31:49;;;;;;;;;;;16.20;1.00;;;;;;5040774;28;20358;-66
2021/06/08 03:34:16;;;;;;;;;;;16.20;1.00;;;;;;5047437;28;20410;-66
2021/06/08 03:36:43;;;;;;;;;;;16.10;1.00;;;;;;5048236;28;19941;-66
2021/06/08 03:39:08;;;;;;;;;;;16.20;1.00;;;;;;5033648;28;19964;-66
2021/06/08 03:41:34;;;;;;;;;;;16.20;1.00;;;;;;5028037;28;19950;-66
2021/06/08 03:44:00;;;;;;;;;;;16.20;1.00;;;;;;5028219;28;19921;-66
2021/06/08 03:46:25;;;;;;;;;;;16.30;1.00;;;;;;5027889;28;20543;-66
2021/06/08 03:48:51;;;;;;;;;;;16.30;1.00;;;;;;5027864;28;19923;-66
2021/06/08 03:51:17;;;;;;;;;;;16.30;1.00;;;;;;5026916;28;19916;-66
2021/06/08 03:53:42;;;;;;;;;;;16.40;1.00;;;;;;5027127;28;19909;-66
2021/06/08 03:56:10;;;;;;;;;;;16.40;1.00;;;;;;5028269;28;19964;-66
2021/06/08 03:58:37;;;;;;;;;;;16.40;1.00;;;;;;5028170;28;19944;-66
2021/06/08 04:01:03;;;;;;;;;;;16.40;1.00;;;;;;5026959;28;20032;-66
2021/06/08 04:03:29;;;;;;;;;;;16.50;1.00;;;;;;5034702;28;20003;-66
2021/06/08 04:05:54;;;;;;;;;;;16.50;1.00;;;;;;5038874;28;20143;-66
2021/06/08 04:08:20;;;;;;;;;;;16.50;1.00;;;;;;5039618;28;19913;-66
2021/06/08 04:10:46;;;;;;;;;;;16.60;1.00;;;;;;5034823;28;20290;-66
2021/06/08 04:13:11;;;;;;;;;;;16.70;1.00;;;;;;5027046;28;19909;-66
2021/06/08 04:15:37;;;;;;;;;;;16.70;1.00;;;;;;5026806;28;20387;-66
2021/06/08 04:18:03;;;;;;;;;;;16.70;1.00;;;;;;5026967;28;19929;-66
2021/06/08 04:20:29;;;;;;;;;;;16.70;1.00;;;;;;5026816;28;20366;-66
2021/06/08 04:22:56;;;;;;;;;;;16.80;1.00;;;;;;5027274;28;19909;-66
2021/06/08 04:25:22;;;;;;;;;;;16.90;1.00;;;;;;5027221;28;19973;-66
2021/06/08 04:27:48;;;;;;;;;;;16.90;1.00;;;;;;5027734;28;19920;-66
2021/06/08 04:30:14;;;;;;;;;;;16.90;1.00;;;;;;5025958;28;19917;-66
2021/06/08 04:32:40;;;;;;;;;;;17.00;1.00;;;;;;5046275;28;20011;-66
2021/06/08 04:35:06;;;;;;;;;;;17.00;1.00;;;;;;5046143;28;20016;-66
2021/06/08 04:37:32;;;;;;;;;;;17.00;1.00;;;;;;5047279;28;20332;-66
2021/06/08 04:39:57;;;;;;;;;;;17.10;1.00;;;;;;5025786;28;20175;-66
2021/06/08 04:42:23;;;;;;;;;;;17.20;1.00;;;;;;5026781;28;19909;-66
2021/06/08 04:44:50;;;;;;;;;;;17.20;1.00;;;;;;5025892;28;20003;-67
2021/06/08 04:47:16;;;;;;;;;;;17.30;1.00;;;;;;5026933;28;19963;-67
2021/06/08 04:49:41;;;;;;;;;;;17.30;1.00;;;;;;5025301;28;19968;-67
2021/06/08 04:52:07;;;;;;;;;;;17.30;1.00;;;;;;5027384;28;19951;-67
2021/06/08 04:54:33;;;;;;;;;;;17.30;1.00;;;;;;5026048;28;19948;-66
2021/06/08 04:56:59;;;;;;;;;;;17.40;1.00;;;;;;5027207;28;19910;-67
2021/06/08 04:59:34;;;;;;;;;;;17.40;1.00;;;;;;5026061;28;20370;-67
2021/06/08 05:02:02;;;;;;;;;;;17.40;1.00;;;;;;5027829;28;20282;-66
2021/06/08 05:04:28;;;;;;;;;;;17.50;1.00;;;;;;5034524;28;19913;-67
2021/06/08 05:06:55;;;;;;;;;;;17.50;1.00;;;;;;5045729;28;20350;-66
2021/06/08 05:09:27;;;;;;;;;;;17.60;1.00;;;;;;5037218;28;20438;-67
2021/06/08 05:11:57;;;;;;;;;;;17.70;1.00;;;;;;5027790;28;19913;-67
2021/06/08 05:14:24;;;;;;;;;;;17.80;1.00;;;;;;5025953;28;20445;-67
2021/06/08 05:16:50;;;;;;;;;;;17.90;1.00;;;;;;5028068;28;19998;-68
2021/06/08 05:19:17;;;;;;;;;;;18.00;1.00;;;;;;5029584;28;19921;-68
2021/06/08 05:21:43;;;;;;;;;;;18.10;1.00;;;;;;5031205;28;19909;-68
2021/06/08 05:24:10;;;;;;;;;;;18.10;1.00;;;;;;5030111;28;20015;-68
2021/06/08 05:26:37;;;;;;;;;;;18.20;1.00;;;;;;5030225;28;20308;-68
2021/06/08 05:29:02;;;;;;;;;;;18.30;1.00;;;;;;5028777;28;20096;-68
2021/06/08 05:31:29;;;;;;;;;;;18.50;1.00;;;;;;5039676;28;19909;-68
2021/06/08 05:33:58;;;;;;;;;;;18.60;1.00;;;;;;5049352;28;19920;-68
2021/06/08 05:36:28;;;;;;;;;;;18.70;1.00;;;;;;5050345;28;19915;-68
2021/06/08 05:38:54;;;;;;;;;;;18.90;1.00;;;;;;5038432;28;19976;-68
2021/06/08 05:41:19;;;;;;;;;;;19.20;1.00;;;;;;5030324;28;20088;-68
2021/06/08 05:43:45;;;;;;;;;;;19.40;1.00;;;;;;5029572;28;20370;-68
2021/06/08 05:46:11;;;;;;;;;;;19.60;99.90;;;;;;5029836;28;19910;-68
2021/06/08 05:48:37;;;;;;;;;;;19.70;99.90;;;;;;5029842;28;19913;-68
2021/06/08 05:51:04;;;;;;;;;;;19.80;99.90;;;;;;5029723;28;19917;-71
2021/06/08 05:53:30;;;;;;;;;;;20.00;55.10;;;;;;5029627;28;20550;-67
2021/06/08 05:55:57;;;;;;;;;;;20.00;1.00;;;;;;5029741;28;19979;-70
2021/06/08 05:58:26;;;;;;;;;;;20.10;1.00;;;;;;5029959;28;20030;-68
2021/06/08 06:00:55;;;;;;;;;;;20.00;1.00;;;;;;5029109;28;20008;-68
2021/06/08 06:03:22;;;;;;;;;;;19.90;1.00;;;;;;5035865;28;20004;-68
2021/06/08 06:05:47;;;;;;;;;;;19.80;1.00;;;;;;5042200;28;20491;-68
2021/06/08 06:08:13;;;;;;;;;;;19.70;99.90;;;;;;5050070;28;19917;-67
2021/06/08 06:10:39;;;;;;;;;;;19.70;99.90;;;;;;5039365;28;19924;-66
2021/06/08 06:13:07;;;;;;;;;;;19.60;99.90;;;;;;5029117;28;19913;-66
2021/06/08 06:15:33;;;;;;;;;;;19.70;99.90;;;;;;5028597;28;19909;-66
2021/06/08 06:17:59;;;;;;;;;;;19.80;99.90;;;;;;5029514;28;20004;-66
2021/06/08 06:20:24;;;;;;;;;;;20.00;99.90;;;;;;5028784;28;19923;-67
2021/06/08 06:22:50;;;;;;;;;;;20.10;99.90;;;;;;5029077;28;19909;-66
2021/06/08 06:25:16;;;;;;;;;;;20.10;54.80;;;;;;5029219;28;19913;-66
2021/06/08 06:27:42;;;;;;;;;;;20.20;1.00;;;;;;5029321;28;19933;-66
2021/06/08 06:30:13;;;;;;;;;;;20.10;13.60;;;;;;5027606;28;20303;-66
2021/06/08 06:32:39;;;;;;;;;;;20.10;17.50;;;;;;5026257;28;19925;-67
2021/06/08 06:35:05;;;;;;;;;;;20.10;55.70;;;;;;5029033;28;19996;-69
2021/06/08 06:37:31;;;;;;;;;;;20.10;6.40;;;;;;5030117;28;19957;-66
2021/06/08 06:39:58;;;;;;;;;;;20.10;1.00;;;;;;5007759;28;19914;-69
2021/06/08 06:42:26;;;;;;;;;;;20.20;90.80;;;;;;5009481;28;20367;-68
2021/06/08 06:44:52;;;;;;;;;;;20.30;1.00;;;;;;5038619;28;19913;-68
2021/06/08 06:47:18;;;;;;;;;;;20.30;1.00;;;;;;5049166;28;19967;-68
2021/06/08 06:49:44;;;;;;;;;;;20.40;1.00;;;;;;5047566;28;19970;-67
2021/06/08 06:52:10;;;;;;;;;;;20.40;1.00;;;;;;5049146;28;19913;-67
2021/06/08 06:54:36;;;;;;;;;;;20.50;1.00;;;;;;5047218;28;19908;-71
2021/06/08 06:57:03;;;;;;;;;;;20.70;1.00;;;;;;5048922;28;19915;-67
2021/06/08 06:59:29;;;;;;;;;;;20.80;1.00;;;;;;5047314;28;19932;-68
2021/06/08 07:01:54;;;;;;;;;;;21.10;1.00;;;;;;5042508;28;19909;-69
2021/06/08 07:04:24;;;;;;;;;;;21.30;99.90;;;;;;5036598;28;19915;-67
2021/06/08 07:06:50;;;;;;;;;;;21.40;1.00;;;;;;5048151;28;19932;-69
2021/06/08 07:09:16;;;;;;;;;;;21.50;99.90;;;;;;5029445;28;19964;-68
2021/06/08 07:11:43;;;;;;;;;;;21.60;38.20;;;;;;5031506;28;20314;-67
2021/06/08 07:14:09;;;;;;;;;;;21.80;1.00;;;;;;5027874;28;20429;-69
2021/06/08 07:16:35;;;;;;;;;;;22.00;99.90;;;;;;5028581;28;19913;-65
2021/06/08 07:19:01;;;;;;;;;;;22.00;99.90;;;;;;5027782;28;19917;-68
2021/06/08 07:21:27;;;;;;;;;;;22.40;1.00;;;;;;5028861;28;20358;-68
2021/06/08 07:23:54;;;;;;;;;;;22.80;99.90;;;;;;5028219;28;19913;-67
2021/06/08 07:26:20;;;;;;;;;;;23.10;1.00;;;;;;5029001;28;19929;-68
2021/06/08 07:28:46;;;;;;;;;;;23.30;1.00;;;;;;5028018;28;19990;-65
2021/06/08 07:31:18;;;;;;;;;;;23.60;99.90;;;;;;5034762;28;19970;-68
2021/06/08 07:33:51;;;;;;;;;;;24.20;99.90;;;;;;5047455;28;20439;-69
2021/06/08 07:36:20;;;;;;;;;;;24.40;1.00;;;;;;5048118;28;19909;-69
2021/06/08 07:38:46;;;;;;;;;;;24.80;1.00;;;;;;5036412;28;19909;-69
2021/06/08 07:41:13;;;;;;;;;;;24.80;1.00;;;;;;5026780;28;19963;-69
2021/06/08 07:43:43;;;;;;;;;;;25.50;1.00;;;;;;5028007;28;19913;-68
2021/06/08 07:46:16;;;;;;;;;;;26.60;1.00;;;;;;5027656;28;20307;-67
2021/06/08 07:48:44;;;;;;;;;;;27.70;1.00;;;;;;5026999;28;19928;-65
2021/06/08 07:51:09;;;;;;;;;;;28.60;99.90;;;;;;5027319;28;20266;-66
2021/06/08 07:53:35;;;;;;;;;;;28.80;99.90;;;;;;5027150;28;19909;-70
2021/06/08 07:56:01;;;;;;;;;;;28.90;99.90;;;;;;5027184;28;19945;-70
2021/06/08 07:58:28;;;;;;;;;;;28.60;99.90;;;;;;5027078;28;19909;-68
2021/06/08 08:00:56;;;;;;;;;;;28.60;99.90;;;;;;5029561;28;19929;-68
2021/06/08 08:03:28;;;;;;;;;;;28.70;99.90;;;;;;5044806;28;19951;-67
2021/06/08 08:05:56;;;;;;;;;;;28.70;99.90;;;;;;5049262;28;19909;-68
2021/06/08 08:08:22;;;;;;;;;;;29.00;99.90;;;;;;5029558;28;19913;-69
2021/06/08 08:10:49;;;;;;;;;;;29.60;99.90;;;;;;5031660;28;19916;-66
2021/06/08 08:13:18;;;;;;;;;;;30.30;99.90;;;;;;5044003;28;20307;-66
2021/06/08 08:15:46;;;;;;;;;;;30.50;99.90;;;;;;5029118;28;19978;-67
2021/06/08 08:18:12;;;;;;;;;;;30.00;99.90;;;;;;5029240;28;19917;-65
2021/06/08 08:20:49;;;;;;;;;;;30.60;99.90;;;;;;5029771;28;19915;-65
2021/06/08 08:23:15;;;;;;;;;;;31.30;99.90;;;;;;5029641;28;19917;-66
2021/06/08 08:25:41;;;;;;;;;;;31.80;99.90;;;;;;5030055;28;20345;-67
2021/06/08 08:28:07;;;;;;;;;;;32.10;99.90;;;;;;5029633;28;19996;-69
2021/06/08 08:30:32;;;;;;;;;;;32.40;99.90;;;;;;5029880;28;19948;-68
2021/06/08 08:32:58;;;;;;;;;;;32.80;99.90;;;;;;5029567;28;20192;-67
2021/06/08 08:35:25;;;;;;;;;;;32.40;99.90;;;;;;5029191;28;19913;-68
2021/06/08 08:37:51;;;;;;;;;;;32.00;99.90;;;;;;5029134;28;19973;-68
2021/06/08 08:40:17;;;;;;;;;;;31.00;99.90;;;;;;5010841;28;19920;-69
2021/06/08 08:42:44;;;;;;;;;;;30.20;99.90;;;;;;5028836;28;20091;-70
2021/06/08 08:45:09;;;;;;;;;;;29.60;99.90;;;;;;5028722;28;19971;-66
2021/06/08 08:47:35;;;;;;;;;;;29.10;99.90;;;;;;5029084;28;19945;-68
2021/06/08 08:50:01;;;;;;;;;;;29.00;99.90;;;;;;5028919;28;19996;-69
2021/06/08 08:52:27;;;;;;;;;;;29.20;99.90;;;;;;5029131;28;20008;-65
2021/06/08 08:54:53;;;;;;;;;;;29.30;99.90;;;;;;5028382;28;19913;-65
2021/06/08 08:57:19;;;;;;;;;;;29.40;99.90;;;;;;5028915;28;19913;-67
2021/06/08 08:59:45;;;;;;;;;;;29.70;99.90;;;;;;5028367;28;19977;-67
2021/06/08 09:02:11;;;;;;;;;;;29.70;99.90;;;;;;5029999;28;20293;-65
2021/06/08 09:04:37;;;;;;;;;;;29.80;99.90;;;;;;5048640;28;20478;-66
2021/06/08 09:07:02;;;;;;;;;;;29.80;99.90;;;;;;5029451;28;19909;-67
2021/06/08 09:09:28;;;;;;;;;;;29.90;99.90;;;;;;5028987;28;20362;-70
2021/06/08 09:11:53;;;;;;;;;;;29.70;99.90;;;;;;5040716;28;20346;-66
2021/06/08 09:14:19;;;;;;;;;;;29.30;99.90;;;;;;5048655;28;20011;-66
2021/06/08 09:16:44;;;;;;;;;;;28.80;99.90;;;;;;5048775;28;20008;-66
2021/06/08 09:19:11;;;;;;;;;;;28.50;99.90;;;;;;5048061;28;20023;-69
2021/06/08 09:21:39;;;;;;;;;;;28.50;99.90;;;;;;5048956;28;19920;-64
2021/06/08 09:24:17;;;;;;;;;;;28.40;99.90;;;;;;5048519;28;20236;-68
2021/06/08 09:26:48;;;;;;;;;;;28.30;99.90;;;;;;5049542;28;19988;-67
2021/06/08 09:29:25;;;;;;;;;;;28.30;99.90;;;;;;5048522;28;20441;-64
2021/06/08 09:32:10;;;;;;;;;;;27.90;99.90;;;;;;5048971;28;20410;-64
2021/06/08 09:34:35;;;;;;;;;;;27.50;99.90;;;;;;5047997;28;19917;-65
2021/06/08 09:37:05;;;;;;;;;;;27.00;99.90;;;;;;5048498;28;20047;-66
2021/06/08 09:39:30;;;;;;;;;;;26.70;99.90;;;;;;5047997;28;19957;-65
2021/06/08 09:41:56;;;;;;;;;;;26.50;99.90;;;;;;5048422;28;19912;-65
2021/06/08 09:44:21;;;;;;;;;;;26.40;99.90;;;;;;5047969;28;20407;-68
2021/06/08 09:46:59;;;;;;;;;;;26.20;99.90;;;;;;5047231;28;19913;-66
2021/06/08 09:49:30;;;;;;;;;;;26.00;99.90;;;;;;5045606;28;19932;-68
2021/06/08 09:51:57;;;;;;;;;;;26.00;99.90;;;;;;5046654;28;19916;-66
2021/06/08 09:54:25;;;;;;;;;;;25.80;99.90;;;;;;5046115;28;19966;-67
2021/06/08 09:57:09;;;;;;;;;;;25.70;99.90;;;;;;5045913;28;19909;-67
2021/06/08 09:59:41;;;;;;;;;;;25.80;99.90;;;;;;5045480;28;19913;-67
2021/06/08 10:02:27;;;;;;;;;;;26.20;99.90;;;;;;5039025;28;19920;-67
2021/06/08 10:04:53;;;;;;;;;;;26.70;99.90;;;;;;5028319;28;20021;-67
2021/06/08 10:07:28;;;;;;;;;;;27.60;99.90;;;;;;5032500;28;20442;-67
2021/06/08 10:10:04;;;;;;;;;;;28.30;99.90;;;;;;5043243;28;20381;-67
2021/06/08 10:12:30;;;;;;;;;;;28.70;99.90;;;;;;5030027;28;20388;-67
2021/06/08 10:15:04;;;;;;;;;;;28.90;99.90;;;;;;5028925;28;19961;-67
2021/06/08 10:17:30;;;;;;;;;;;30.10;99.90;;;;;;5030198;28;19913;-67
2021/06/08 10:19:55;;;;;;;;;;;31.40;99.90;;;;;;5028821;28;19913;-67
2021/06/08 10:22:31;;;;;;;;;;;33.30;99.90;;;;;;5030424;28;20004;-67
2021/06/08 10:24:56;;;;;;;;;;;34.80;99.90;;;;;;5029499;28;20279;-67
2021/06/08 10:27:22;;;;;;;;;;;35.10;99.90;;;;;;5030655;28;19932;-67
2021/06/08 10:29:48;;;;;;;;;;;34.50;99.90;;;;;;5028528;28;19967;-67
2021/06/08 10:32:13;;;;;;;;;;;33.70;99.90;;;;;;5045494;28;20394;-67
2021/06/08 10:34:40;;;;;;;;;;;32.90;99.90;;;;;;5030998;28;19912;-67
2021/06/08 10:37:06;;;;;;;;;;;32.50;99.90;;;;;;5049233;28;19916;-67
2021/06/08 10:39:32;;;;;;;;;;;32.40;99.90;;;;;;5031183;28;20354;-67
2021/06/08 10:41:59;;;;;;;;;;;32.60;99.90;;;;;;5030086;28;20004;-67
2021/06/08 10:44:25;;;;;;;;;;;32.30;99.90;;;;;;5028843;28;19909;-67
2021/06/08 10:47:06;;;;;;;;;;;31.80;99.90;;;;;;5028696;28;20016;-67
2021/06/08 10:49:32;;;;;;;;;;;31.20;99.90;;;;;;5028207;28;19923;-67
2021/06/08 10:52:01;;;;;;;;;;;30.50;99.90;;;;;;5029675;28;19913;-67
2021/06/08 10:54:27;;;;;;;;;;;30.00;99.90;;;;;;5029105;28;20383;-67
2021/06/08 10:56:59;;;;;;;;;;;29.40;99.90;;;;;;5029541;28;20067;-67
2021/06/08 10:59:37;;;;;;;;;;;29.00;99.90;;;;;;5028310;28;19945;-67
2021/06/08 11:02:03;;;;;;;;;;;28.20;99.90;;;;;;5029585;28;19909;-67
2021/06/08 11:04:51;;;;;;;;;;;28.10;99.90;;;;;;5036767;28;20484;-67
2021/06/08 11:07:35;;;;;;;;;;;28.00;99.90;;;;;;5022880;28;20517;-67
2021/06/08 11:10:02;;;;;;;;;;;28.10;99.90;;;;;;5022718;28;20486;-67
2021/06/08 11:12:28;;;;;;;;;;;28.30;99.90;;;;;;5030533;28;19913;-66
2021/06/08 11:14:58;;;;;;;;;;;28.40;99.90;;;;;;5027298;28;20032;-67
2021/06/08 11:17:31;;;;;;;;;;;29.00;99.90;;;;;;5029640;28;19909;-67
2021/06/08 11:19:58;;;;;;;;;;;30.00;99.90;;;;;;5018100;28;20386;-67
2021/06/08 11:22:43;;;;;;;;;;;31.10;99.90;;;;;;5029468;28;19999;-67
2021/06/08 11:25:29;;;;;;;;;;;32.10;99.90;;;;;;5017479;28;19917;-66
2021/06/08 11:27:54;;;;;;;;;;;33.50;99.90;;;;;;5029622;28;19909;-66
2021/06/08 11:30:22;;;;;;;;;;;34.40;99.90;;;;;;5027595;28;19917;-66
2021/06/08 11:32:48;;;;;;;;;;;34.90;99.90;;;;;;5029155;28;19916;-66
2021/06/08 11:35:17;;;;;;;;;;;34.30;99.90;;;;;;5028251;28;20403;-66
2021/06/08 11:37:50;;;;;;;;;;;34.00;99.90;;;;;;5028238;28;20099;-66
2021/06/08 11:40:34;;;;;;;;;;;33.70;99.90;;;;;;5027226;28;20736;-66
2021/06/08 11:43:01;;;;;;;;;;;34.10;99.90;;;;;;5027133;28;19948;-66
2021/06/08 11:45:29;;;;;;;;;;;33.70;99.90;;;;;;5026590;28;19913;-67
2021/06/08 11:47:55;;;;;;;;;;;33.20;99.90;;;;;;5028775;28;19940;-67
2021/06/08 11:50:41;;;;;;;;;;;32.70;99.90;;;;;;5026124;28;19952;-67
2021/06/08 11:53:08;;;;;;;;;;;32.20;99.90;;;;;;5024789;28;19917;-67
2021/06/08 11:55:34;;;;;;;;;;;31.60;99.90;;;;;;5009110;28;19924;-66
2021/06/08 11:58:00;;;;;;;;;;;31.50;99.90;;;;;;5026825;28;19909;-66
2021/06/08 12:00:42;;;;;;;;;;;31.60;99.90;;;;;;5025499;28;20286;-66
2021/06/08 12:03:26;;;;;;;;;;;31.80;99.90;;;;;;5025146;28;20059;-66
2021/06/08 12:05:52;;;;;;;;;;;31.90;99.90;;;;;;5036305;28;19909;-66
2021/06/08 12:08:24;;;;;;;;;;;31.70;99.90;;;;;;5027624;28;19909;-67
2021/06/08 12:10:50;;;;;;;;;;;31.80;99.90;;;;;;5026812;28;19974;-66
2021/06/08 12:13:20;;;;;;;;;;;31.70;99.90;;;;;;5027644;28;20390;-66
2021/06/08 12:15:47;;;;;;;;;;;31.40;99.90;;;;;;5027415;28;19996;-67
2021/06/08 12:18:15;;;;;;;;;;;30.70;99.90;;;;;;5027633;28;19918;-67
2021/06/08 12:20:41;;;;;;;;;;;30.30;99.90;;;;;;5027097;28;19982;-66
2021/06/08 12:23:08;;;;;;;;;;;29.90;99.90;;;;;;5027487;28;20003;-67
2021/06/08 12:25:34;;;;;;;;;;;29.60;99.90;;;;;;5027791;28;19909;-67
2021/06/08 12:28:00;;;;;;;;;;;29.60;99.90;;;;;;5028031;28;19923;-67
2021/06/08 12:30:27;;;;;;;;;;;29.50;99.90;;;;;;5027836;28;19916;-67
2021/06/08 12:32:53;;;;;;;;;;;29.50;99.90;;;;;;5047494;28;19958;-67
2021/06/08 12:35:20;;;;;;;;;;;29.40;99.90;;;;;;5047271;28;20420;-67
2021/06/08 12:37:46;;;;;;;;;;;29.20;99.90;;;;;;5045048;28;19913;-66
2021/06/08 12:40:14;;;;;;;;;;;29.00;99.90;;;;;;5027242;28;20318;-66
2021/06/08 12:42:40;;;;;;;;;;;29.00;99.90;;;;;;5028685;28;19913;-66
2021/06/08 12:45:06;;;;;;;;;;;28.90;99.90;;;;;;5038624;28;20134;-69
2021/06/08 12:47:33;;;;;;;;;;;28.80;99.90;;;;;;5048428;28;19916;-67
2021/06/08 12:50:05;;;;;;;;;;;28.90;99.90;;;;;;5046468;28;19921;-68
2021/06/08 12:52:30;;;;;;;;;;;29.00;99.90;;;;;;5048102;28;19908;-67
2021/06/08 12:54:56;;;;;;;;;;;28.90;99.90;;;;;;5047355;28;20094;-67
2021/06/08 12:57:21;;;;;;;;;;;28.90;99.90;;;;;;5047789;28;20012;-67
2021/06/08 12:59:54;;;;;;;;;;;28.80;99.90;;;;;;5045779;28;19910;-67
2021/06/08 13:02:20;;;;;;;;;;;28.80;99.90;;;;;;5037197;28;20279;-67
2021/06/08 13:04:46;;;;;;;;;;;28.70;99.90;;;;;;5037416;28;20260;-67
2021/06/08 13:07:17;;;;;;;;;;;28.50;99.90;;;;;;5047509;28;19948;-67
2021/06/08 13:09:43;;;;;;;;;;;28.20;99.90;;;;;;5044287;28;19917;-67
2021/06/08 13:12:10;;;;;;;;;;;28.20;99.90;;;;;;5040897;28;19920;-66
2021/06/08 13:14:36;;;;;;;;;;;28.40;99.90;;;;;;5046701;28;19994;-67
2021/06/08 13:17:21;;;;;;;;;;;28.40;99.90;;;;;;5047069;28;19948;-67
2021/06/08 13:19:47;;;;;;;;;;;28.50;99.90;;;;;;5045562;28;20254;-67
2021/06/08 13:22:14;;;;;;;;;;;28.50;99.90;;;;;;5047271;28;19909;-67
2021/06/08 13:24:43;;;;;;;;;;;28.80;99.90;;;;;;5046700;28;19909;-67
2021/06/08 13:27:13;;;;;;;;;;;28.90;99.90;;;;;;5047248;28;19923;-67
2021/06/08 13:29:39;;;;;;;;;;;28.80;99.90;;;;;;5044956;28;19935;-67
2021/06/08 13:32:05;;;;;;;;;;;28.60;99.90;;;;;;5032635;28;19909;-67
2021/06/08 13:34:31;;;;;;;;;;;28.70;99.90;;;;;;5026451;28;19917;-66
2021/06/08 13:37:04;;;;;;;;;;;28.60;99.90;;;;;;5026947;28;20008;-67
2021/06/08 13:39:40;;;;;;;;;;;28.60;99.90;;;;;;5029280;28;19913;-67
2021/06/08 13:42:13;;;;;;;;;;;28.60;99.90;;;;;;5031359;28;19913;-66
2021/06/08 13:44:54;;;;;;;;;;;28.40;99.90;;;;;;5030142;28;20083;-66
2021/06/08 13:47:27;;;;;;;;;;;28.50;99.90;;;;;;5030696;28;19952;-70
2021/06/08 13:49:52;;;;;;;;;;;28.70;99.90;;;;;;5028758;28;19925;-69
2021/06/08 13:52:17;;;;;;;;;;;28.60;99.90;;;;;;5030988;28;20059;-67
2021/06/08 13:54:43;;;;;;;;;;;28.60;99.90;;;;;;5030244;28;19920;-66
2021/06/08 14:02:41;;;;;;;;;;;28.20;99.90;;;;;;5035725;28;19925;-68
2021/06/08 14:05:07;;;;;;;;;;;27.70;99.90;;;;;;5023578;28;20028;-67
2021/06/08 14:07:32;;;;;;;;;;;27.20;99.90;;;;;;5050833;28;20440;-68
2021/06/08 14:10:04;;;;;;;;;;;26.60;99.90;;;;;;5051589;28;20133;-68
2021/06/08 14:12:30;;;;;;;;;;;26.00;99.90;;;;;;5052263;28;19909;-67
2021/06/08 14:15:03;;;;;;;;;;;24.70;99.90;;;;;;5051701;28;19916;-70
2021/06/08 14:17:29;;;;;;;;;;;24.20;1.00;;;;;;5051841;28;20381;-66
2021/06/08 14:19:54;;;;;;;;;;;24.00;1.00;;;;;;5049556;28;19958;-67
2021/06/08 14:22:20;;;;;;;;;;;24.00;1.00;;;;;;5050433;28;19913;-67
2021/06/08 14:24:45;;;;;;;;;;;24.20;1.00;;;;;;5049452;28;19913;-68
2021/06/08 14:27:12;;;;;;;;;;;24.40;1.00;;;;;;5049576;28;20030;-69
2021/06/08 14:29:38;;;;;;;;;;;24.40;1.00;;;;;;5048088;28;19956;-67
2021/06/08 14:32:04;;;;;;;;;;;24.50;1.00;;;;;;5034541;28;19960;-68